Observations for BINGHAMTON BROOME, NY (BGM)

KBGM 112153Z 00000KT 10SM OVC031 M04/M07 A2991 RMK AO2 SLP152 T10391072 
KBGM 112053Z 00000KT 9SM OVC030 M04/M08 A2990 RMK AO2 SLP150 T10391078 56008
KBGM 112032Z AUTO 00000KT 8SM OVC030 M03/M08 A2990 RMK AO2 T10331078
KBGM 111953Z AUTO 00000KT 8SM OVC028 M04/M08 A2990 RMK AO2 SLP149 T10391078 
KBGM 111853Z 29007KT 9SM OVC017 M04/M08 A2992 RMK AO2 SLP154 T10391078  
KBGM 111817Z VRB03KT 9SM OVC015 M04/M08 A2992 RMK AO2 T10441078
KBGM 111753Z 25004KT 8SM OVC014 M04/M07 A2993 RMK AO2 SLP158 T10441072 11044 21072 56026
KBGM 111653Z 21005KT 8SM OVC013 M04/M08 A2995 RMK AO2 SLP165 T10441078  
KBGM 111553Z 23008KT 8SM OVC013 M05/M08 A2998 RMK AO2 SLP176 T10501078  
KBGM 111453Z 23007KT 8SM OVC014 M05/M08 A3001 RMK AO2 SLP186 T10501078 58003
KBGM 111424Z 20004KT 8SM OVC014 M06/M08 A3002 RMK AO2 T10561078
KBGM 111353Z 20006KT 8SM OVC016 M06/M08 A3003 RMK AO2 SLP192 T10561078  
KBGM 111253Z 21006KT 8SM OVC017 M06/M08 A3003 RMK AO2 SLP193 T10611083  
KBGM 111153Z 16006KT 8SM OVC019 M07/M09 A3002 RMK AO2 SLP191 T10721089 11056 21078 58015
KBGM 111053Z 17003KT 8SM OVC018 M07/M08 A3004 RMK AO2 SLP197 T10721083  
KBGM 110953Z AUTO 14003KT 8SM OVC018 M07/M09 A3005 RMK AO2 SLP200 T10721089 
KBGM 110905Z AUTO 17003KT 9SM BKN023 M07/M09 A3006 RMK AO2 T10721094
KBGM 110853Z AUTO 00000KT 9SM FEW025 M07/M09 A3007 RMK AO2 SLP205 T10721094 58005   
KBGM 110753Z AUTO 00000KT 10SM CLR M07/M09 A3008 RMK AO2 SLP210 T10671094   
KBGM 110705Z AUTO 00000KT 10SM SCT017 M07/M09 A3008 RMK AO2 T10671094
KBGM 110653Z AUTO 16003KT 10SM BKN017 M07/M09 A3007 RMK AO2 SLP205 T10671094
KBGM 110553Z AUTO 00000KT 10SM OVC019 M06/M09 A3008 RMK AO2 SLP210 T10561089 11039 21061 58006  
KBGM 110453Z AUTO 23003KT 10SM BKN021 M06/M09 A3009 RMK AO2 SLP213 T10561089 410111061  
KBGM 110405Z 00000KT 10SM BKN021 M06/M09 A3010 RMK AO2 T10561094
KBGM 110353Z 25003KT 10SM SCT021 M06/M09 A3010 RMK AO2 SLP216 T10561094 
KBGM 110253Z 00000KT 10SM CLR M06/M09 A3010 RMK AO2 SLP217 T10561089 51003  
KBGM 110227Z 00000KT 10SM SCT019 M05/M09 A3010 RMK AO2 T10501089
KBGM 110153Z 00000KT 10SM OVC020 M04/M08 A3010 RMK AO2 SLP216 T10441083 
KBGM 110053Z 01007KT 10SM OVC021 M04/M08 A3010 RMK AO2 SLP217 T10391083 
KBGM 102353Z 36007KT 10SM OVC022 M04/M08 A3009 RMK AO2 SLP214 T10391083 11011 21039 56001   
KBGM 102253Z 01007KT 10SM OVC022 M03/M08 A3009 RMK AO2 SLP214 T10331078 
KBGM 102153Z 36005KT 10SM OVC024 M03/M08 A3009 RMK AO2 SLP213 T10281078